RJFF(METAR)
02/02 03:00
METAR RJFF 011800Z AUTO 01006KT 340V040 9999 NSC 09/03 Q1019 NOSIG
RMK A3010=
戻る
トップページへ戻る
IMOC Co,.Ltd.